createdAt,value
2022-11-04T00:02:44.743Z,98353.38
2022-11-04T00:06:46.613Z,98356.06
2022-11-04T00:11:06.563Z,98356.13
2022-11-04T00:15:26.720Z,98370.06
2022-11-04T00:19:28.348Z,98390.06
2022-11-04T00:23:48.422Z,98377.13
2022-11-04T00:28:08.933Z,98377.19
2022-11-04T00:36:30.922Z,98396.25
2022-11-04T00:40:32.206Z,98388.53
2022-11-04T00:44:34.311Z,98403.28
2022-11-04T00:48:35.556Z,98404.13
2022-11-04T00:52:36.871Z,98405.09
2022-11-04T00:56:39.185Z,98404.34
2022-11-04T01:00:40.602Z,98402.63
2022-11-04T01:04:42.104Z,98392.38
2022-11-04T01:08:43.464Z,98383.06
2022-11-04T01:12:44.717Z,98382.28
2022-11-04T01:16:48.783Z,98397.97
2022-11-04T01:20:50.063Z,98405.88
2022-11-04T01:24:51.577Z,98403.38
2022-11-04T01:28:54.736Z,98401.78
2022-11-04T01:32:56.008Z,98402.72
2022-11-04T01:36:57.427Z,98403.63
2022-11-04T01:40:59.438Z,98401.88
2022-11-04T01:45:01.205Z,98393.19
2022-11-04T01:49:21.347Z,98391.47
2022-11-04T01:53:34.558Z,98391.44
2022-11-04T01:57:40.502Z,98372.47
2022-11-04T02:01:42.526Z,98378.50
2022-11-04T02:05:44.638Z,98378.53
2022-11-04T02:09:47.126Z,98374.22
2022-11-04T02:13:48.800Z,98369.88
2022-11-04T02:18:00.184Z,98366.41
2022-11-04T02:22:02.093Z,98372.44
2022-11-04T02:26:24.055Z,98368.09
2022-11-04T02:30:27.415Z,98374.09
2022-11-04T02:34:37.856Z,98366.28
2022-11-04T02:38:52.186Z,98358.47
2022-11-04T02:43:08.580Z,98349.94
2022-11-04T02:47:18.683Z,98338.75
2022-11-04T02:51:24.942Z,98330.19
2022-11-04T02:55:38.982Z,98315.59
2022-11-04T02:59:49.474Z,98316.50
2022-11-04T03:03:54.986Z,98308.72
2022-11-04T03:07:57.938Z,98308.66
2022-11-04T03:12:02.615Z,98312.06
2022-11-04T03:16:06.583Z,98307.75
2022-11-04T03:20:12.060Z,98320.72
2022-11-04T03:24:13.685Z,98324.38
2022-11-04T03:28:34.483Z,98317.56
2022-11-04T03:32:58.820Z,98308.97
2022-11-04T03:37:01.619Z,98307.25
2022-11-04T03:41:07.142Z,98298.63
2022-11-04T03:45:10.456Z,98285.69
2022-11-04T03:49:12.237Z,98289.28
2022-11-04T03:53:24.208Z,98279.00
2022-11-04T03:57:25.551Z,98270.47
2022-11-04T04:01:30.336Z,98262.72
2022-11-04T04:05:36.955Z,98255.91
2022-11-04T04:09:43.731Z,98257.72
2022-11-04T04:14:06.626Z,98252.69
2022-11-04T04:18:12.846Z,98251.06
2022-11-04T04:22:18.649Z,98245.94
2022-11-04T04:26:42.252Z,98238.25
2022-11-04T04:30:44.519Z,98234.94
2022-11-04T04:34:48.203Z,98228.91
2022-11-04T04:39:08.132Z,98231.59
2022-11-04T04:43:33.345Z,98221.28
2022-11-04T04:47:40.228Z,98224.81
2022-11-04T04:51:45.190Z,98219.69
2022-11-04T04:55:46.523Z,98210.25
2022-11-04T04:59:48.705Z,98212.09
2022-11-04T05:03:50.065Z,98209.59
2022-11-04T05:07:51.791Z,98203.66
2022-11-04T05:11:53.106Z,98201.06
2022-11-04T05:15:54.788Z,98201.94
2022-11-04T05:19:56.038Z,98189.06
2022-11-04T05:23:57.559Z,98192.59
2022-11-04T05:27:59.758Z,98197.09
2022-11-04T05:32:01.286Z,98190.25
2022-11-04T05:36:06.883Z,98207.50
2022-11-04T05:40:08.759Z,98222.22
2022-11-04T05:44:10.934Z,98222.19
2022-11-04T05:48:12.236Z,98243.72
2022-11-04T05:52:16.165Z,98241.97
2022-11-04T05:56:17.792Z,98249.69
2022-11-04T06:00:19.383Z,98253.94
2022-11-04T06:04:21.215Z,98258.19
2022-11-04T06:08:22.751Z,98252.03
2022-11-04T06:17:06.593Z,98251.06
2022-11-04T06:21:38.734Z,98254.44
2022-11-04T06:25:43.646Z,98266.41
2022-11-04T06:29:49.438Z,98279.31
2022-11-04T06:33:53.269Z,98284.38
2022-11-04T06:42:17.771Z,98291.94
2022-11-04T06:46:48.194Z,98288.44
2022-11-04T06:55:29.001Z,98287.50
2022-11-04T07:17:38.495Z,98292.47
2022-11-04T07:26:59.066Z,98296.75
2022-11-04T07:36:37.228Z,98287.09
2022-11-04T07:46:04.978Z,98300.56
2022-11-04T07:50:11.548Z,98296.97
2022-11-04T07:54:19.377Z,98308.03
2022-11-04T07:58:22.693Z,98307.94
2022-11-04T08:02:36.079Z,98311.31
2022-11-04T08:06:57.529Z,98308.69
2022-11-04T08:11:03.989Z,98310.38
2022-11-04T08:15:05.821Z,98322.41
2022-11-04T08:19:07.191Z,98314.59
2022-11-04T08:23:12.255Z,98319.84
2022-11-04T08:27:14.271Z,98321.56
2022-11-04T08:31:24.618Z,98316.38
2022-11-04T08:35:26.043Z,98326.72
2022-11-04T08:39:27.488Z,98315.38
2022-11-04T08:43:29.040Z,98319.59
2022-11-04T08:47:30.469Z,98316.00
2022-11-04T08:51:33.488Z,98309.03
2022-11-04T08:55:35.620Z,98305.41
2022-11-04T08:59:36.866Z,98300.94
2022-11-04T09:03:46.948Z,98299.00
2022-11-04T09:08:01.463Z,98303.19
2022-11-04T09:12:08.989Z,98303.88
2022-11-04T09:20:37.569Z,98304.56
2022-11-04T09:28:58.437Z,98305.22
2022-11-04T09:33:00.070Z,98301.63
2022-11-04T09:37:01.761Z,98298.03
2022-11-04T09:41:09.081Z,98298.81
2022-11-04T09:45:21.732Z,98294.44
2022-11-04T09:49:26.462Z,98289.06
2022-11-04T09:53:37.910Z,98295.53
2022-11-04T09:57:39.327Z,98300.03
2022-11-04T10:01:46.224Z,98299.69
2022-11-04T10:05:47.516Z,98299.50
2022-11-04T10:10:03.827Z,98299.28
2022-11-04T10:14:08.963Z,98304.66
2022-11-04T10:18:16.672Z,98313.38
2022-11-04T10:22:28.434Z,98307.28
2022-11-04T10:26:35.914Z,98302.03
2022-11-04T10:30:37.287Z,98301.84
2022-11-04T10:34:44.292Z,98301.88
2022-11-04T10:38:50.488Z,98311.84
2022-11-04T10:42:52.860Z,98308.34
2022-11-04T10:46:59.407Z,98319.31
2022-11-04T10:51:01.378Z,98309.47
2022-11-04T10:55:02.949Z,98310.13
2022-11-04T10:59:24.251Z,98309.28
2022-11-04T11:03:27.877Z,98306.78
2022-11-04T11:07:36.028Z,98315.41
2022-11-04T11:11:37.307Z,98316.03
2022-11-04T11:15:41.248Z,98326.47
2022-11-04T11:19:51.839Z,98333.34
2022-11-04T11:23:56.093Z,98331.13
2022-11-04T11:27:59.107Z,98329.25
2022-11-04T11:32:03.144Z,98330.03
2022-11-04T11:36:16.713Z,98333.47
2022-11-04T11:40:25.958Z,98340.38
2022-11-04T11:44:38.614Z,98336.97
2022-11-04T11:48:43.031Z,98339.41
2022-11-04T11:52:45.073Z,98335.75
2022-11-04T12:01:22.020Z,98342.72
2022-11-04T12:10:50.884Z,98340.84
2022-11-04T12:14:59.181Z,98340.69
2022-11-04T12:19:19.432Z,98337.03
2022-11-04T12:23:25.261Z,98342.13
2022-11-04T12:27:34.080Z,98345.59
2022-11-04T12:31:51.804Z,98341.13
2022-11-04T12:35:53.687Z,98336.63
2022-11-04T12:39:55.058Z,98337.25
2022-11-04T12:44:15.131Z,98339.53
2022-11-04T12:48:22.447Z,98331.59
2022-11-04T12:52:31.524Z,98332.31
2022-11-04T12:56:37.783Z,98333.09
2022-11-04T13:00:41.208Z,98335.00
2022-11-04T13:04:48.219Z,98331.53
2022-11-04T13:08:56.202Z,98336.72
2022-11-04T13:13:01.306Z,98340.13
2022-11-04T13:17:07.747Z,98342.88
2022-11-04T13:21:16.874Z,98340.75
2022-11-04T13:25:38.378Z,98354.66
2022-11-04T13:29:40.417Z,98352.06
2022-11-04T13:33:54.678Z,98357.41
2022-11-04T13:37:59.494Z,98354.84
2022-11-04T13:42:10.079Z,98362.69
2022-11-04T13:46:11.379Z,98369.72
2022-11-04T13:50:30.300Z,98371.53
2022-11-04T13:54:43.164Z,98380.13
2022-11-04T13:58:51.604Z,98387.84
2022-11-04T14:02:54.272Z,98388.66
2022-11-04T14:06:57.540Z,98399.13
2022-11-04T14:11:00.994Z,98407.78
2022-11-04T14:15:04.854Z,98416.59
2022-11-04T14:19:44.713Z,98421.88
2022-11-04T14:23:47.304Z,98429.06
2022-11-04T14:27:49.849Z,98422.22
2022-11-04T14:31:52.456Z,98419.63
2022-11-04T14:35:55.155Z,98436.97
2022-11-04T14:40:00.792Z,98442.16
2022-11-04T14:44:07.325Z,98451.75
2022-11-04T14:48:29.649Z,98456.13
2022-11-04T14:52:52.400Z,98467.44
2022-11-04T14:57:07.175Z,98470.94
2022-11-04T15:01:17.640Z,98479.66
2022-11-04T15:05:26.323Z,98492.00
2022-11-04T15:09:30.203Z,98490.38
2022-11-04T15:13:44.941Z,98487.94
2022-11-04T15:17:46.712Z,98494.00
2022-11-04T15:21:49.615Z,98501.00
2022-11-04T15:25:51.021Z,98505.38
2022-11-04T15:29:55.384Z,98510.66
2022-11-04T15:33:58.639Z,98521.06
2022-11-04T15:38:01.184Z,98519.44
2022-11-04T15:42:23.315Z,98523.16
2022-11-04T15:46:26.136Z,98535.50
2022-11-04T15:50:30.555Z,98539.06
2022-11-04T15:54:34.301Z,98545.94
2022-11-04T15:58:35.699Z,98550.28
2022-11-04T16:02:39.249Z,98563.31
2022-11-04T16:06:44.911Z,98569.44
2022-11-04T16:10:46.194Z,98575.69
2022-11-04T16:14:48.686Z,98582.72
2022-11-04T16:18:57.491Z,98592.28
2022-11-04T16:23:00.017Z,98595.81
2022-11-04T16:27:01.417Z,98594.94
2022-11-04T16:31:04.887Z,98596.81
2022-11-04T16:35:12.738Z,98600.31
2022-11-04T16:39:14.321Z,98603.81
2022-11-04T16:43:19.413Z,98614.25
2022-11-04T16:47:21.013Z,98616.00
2022-11-04T16:51:23.435Z,98632.50
2022-11-04T16:55:25.387Z,98635.19
2022-11-04T16:59:26.681Z,98650.81
2022-11-04T17:03:27.951Z,98657.69
2022-11-04T17:07:47.181Z,98659.44
2022-11-04T17:11:50.662Z,98655.19
2022-11-04T17:15:52.164Z,98654.38
2022-11-04T17:19:53.475Z,98658.00
2022-11-04T17:23:56.210Z,98669.25
2022-11-04T17:27:57.486Z,98674.44
2022-11-04T17:31:58.808Z,98679.66
2022-11-04T17:36:04.794Z,98684.09
2022-11-04T17:40:11.989Z,98696.31
2022-11-04T17:44:13.680Z,98700.63
2022-11-04T17:48:15.291Z,98709.25
2022-11-04T17:52:16.636Z,98723.97
2022-11-04T17:56:19.059Z,98734.38
2022-11-04T18:00:24.201Z,98730.16
2022-11-04T18:04:25.678Z,98744.00
2022-11-04T18:08:26.958Z,98746.63
2022-11-04T18:12:37.383Z,98751.78
2022-11-04T18:16:38.659Z,98756.13
2022-11-04T18:20:40.110Z,98763.09
2022-11-04T18:24:41.597Z,98759.66
2022-11-04T18:28:43.032Z,98770.06
2022-11-04T18:32:44.389Z,98771.03
2022-11-04T18:36:46.523Z,98780.59
2022-11-04T18:40:47.810Z,98779.75
2022-11-04T18:44:49.255Z,98790.09
2022-11-04T18:48:51.749Z,98796.13
2022-11-04T18:52:53.795Z,98803.91
2022-11-04T18:56:55.079Z,98803.06
2022-11-04T19:00:56.420Z,98809.97
2022-11-04T19:04:57.784Z,98808.25
2022-11-04T19:09:32.110Z,98809.16
2022-11-04T19:13:28.623Z,98822.97
2022-11-04T19:17:29.911Z,98810.06
2022-11-04T19:21:31.252Z,98820.41
2022-11-04T19:25:32.901Z,98820.41
2022-11-04T19:29:34.519Z,98824.75
2022-11-04T19:33:36.054Z,98830.00
2022-11-04T19:37:37.637Z,98840.34
2022-11-04T19:41:57.897Z,98843.81
2022-11-04T19:46:04.213Z,98852.50
2022-11-04T19:50:06.659Z,98855.16
2022-11-04T19:54:09.840Z,98861.22
2022-11-04T19:58:12.092Z,98868.13
2022-11-04T20:02:14.337Z,98872.44
2022-11-04T20:06:16.301Z,98879.34
2022-11-04T20:10:17.842Z,98888.88
2022-11-04T20:14:19.154Z,98887.19
2022-11-04T20:18:21.221Z,98897.56
2022-11-04T20:22:22.529Z,98908.75
2022-11-04T20:26:24.787Z,98904.47
2022-11-04T20:30:26.093Z,98917.44
2022-11-04T20:34:32.512Z,98922.63
2022-11-04T20:38:34.270Z,98926.97
2022-11-04T20:42:35.742Z,98928.69
2022-11-04T20:46:37.304Z,98939.91
2022-11-04T20:50:38.591Z,98942.50
2022-11-04T20:54:39.854Z,98948.56
2022-11-04T20:58:42.553Z,98949.44
2022-11-04T21:02:43.923Z,98953.72
2022-11-04T21:06:45.849Z,98964.91
2022-11-04T21:10:50.620Z,98977.84
2022-11-04T21:14:52.196Z,98992.53
2022-11-04T21:18:54.348Z,98992.53
2022-11-04T21:22:55.644Z,98994.25
2022-11-04T21:26:56.966Z,98997.69
2022-11-04T21:31:02.407Z,99008.94
2022-11-04T21:35:03.855Z,99018.47
2022-11-04T21:39:05.611Z,99023.63
2022-11-04T21:43:06.871Z,99029.66
2022-11-04T21:47:08.259Z,99027.97
2022-11-04T21:51:11.299Z,99034.88
2022-11-04T21:55:12.728Z,99038.31
2022-11-04T21:59:18.164Z,99038.31
2022-11-04T22:03:20.032Z,99034.88
2022-11-04T22:07:41.316Z,99039.19
2022-11-04T22:11:42.726Z,99038.31
2022-11-04T22:15:59.281Z,99034.88
2022-11-04T22:20:00.648Z,99032.28
2022-11-04T22:24:01.957Z,99041.78
2022-11-04T22:28:03.385Z,99053.88
2022-11-04T22:32:04.983Z,99043.53
2022-11-04T22:36:06.927Z,99050.47
2022-11-04T22:40:08.615Z,99052.19
2022-11-04T22:44:10.215Z,99057.34
2022-11-04T22:48:11.893Z,99056.47
2022-11-04T22:52:13.219Z,99057.34
2022-11-04T22:56:14.898Z,99070.31
2022-11-04T23:00:16.392Z,99077.19
2022-11-04T23:04:17.701Z,99077.16
2022-11-04T23:08:19.133Z,99084.06
2022-11-04T23:12:39.453Z,99086.66
2022-11-04T23:16:59.510Z,99090.97
2022-11-04T23:21:19.647Z,99092.72
2022-11-04T23:25:20.975Z,99092.69
2022-11-04T23:29:41.146Z,99091.81
2022-11-04T23:34:01.466Z,99100.47
2022-11-04T23:38:03.220Z,99097.03
2022-11-04T23:42:16.703Z,99104.78
2022-11-04T23:46:42.598Z,99107.34
2022-11-04T23:51:03.358Z,99118.59
2022-11-04T23:55:23.996Z,99122.91
2022-11-04T23:59:44.142Z,99131.56
